Time;durP1;ratioP1;P1;durP2;ratioP2;P2;SDS_P1;SDS_P2;PMS_P1;PMS_P2;Temp;Humidity;BMP_temperature;BMP_pressure;BME280_temperature;BME280_humidity;BME280_pressure;Samples;Min_cycle;Max_cycle;Signal;HPM_P1;HPM_P2
2021/05/09 04:54:06;;;;;;;6.97;4.10;;;;;;;;;;5107829;28;20407;-77
2021/05/09 04:56:32;;;;;;;6.95;4.22;;;;;;;;;;5060426;28;20489;-77
2021/05/09 04:58:57;;;;;;;7.25;4.43;;;;;;;;;;5061489;28;20103;-77
2021/05/09 05:01:24;;;;;;;7.85;4.20;;;;;;;;;;5061597;28;20080;-77
2021/05/09 05:03:55;;;;;;;6.07;3.80;;;;;;;;;;5039423;28;20124;-77
2021/05/09 05:06:22;;;;;;;5.28;3.85;;;;;;;;;;5044769;28;20067;-77
2021/05/09 05:09:02;;;;;;;7.30;3.95;;;;;;;;;;5041395;28;20037;-77
2021/05/09 05:11:29;;;;;;;5.70;3.78;;;;;;;;;;5058000;28;20029;-77
2021/05/09 05:13:58;;;;;;;8.23;4.53;;;;;;;;;;5055181;28;20530;-78
2021/05/09 05:16:30;;;;;;;7.40;3.75;;;;;;;;;;5054410;28;20112;-78
2021/05/09 05:19:00;;;;;;;5.63;3.65;;;;;;;;;;5041222;28;20021;-78
2021/05/09 05:21:47;;;;;;;8.25;3.95;;;;;;;;;;5019040;28;20071;-79
2021/05/09 05:24:16;;;;;;;9.30;4.40;;;;;;;;;;5038704;28;20060;-79
2021/05/09 05:27:07;;;;;;;5.50;3.72;;;;;;;;;;5047722;28;20056;-79
2021/05/09 05:32:01;;;;;;;5.63;3.90;;;;;;;;;;5113447;27;975743;-78
2021/05/09 05:34:28;;;;;;;7.18;4.40;;;;;;;;;;5132908;28;20039;-77
2021/05/09 05:36:53;;;;;;;7.40;4.65;;;;;;;;;;5107751;28;20086;-78
2021/05/09 05:39:19;;;;;;;8.57;4.35;;;;;;;;;;5112664;28;20472;-77
2021/05/09 05:41:45;;;;;;;7.70;3.92;;;;;;;;;;5110288;28;20032;-77
2021/05/09 05:44:11;;;;;;;5.45;4.00;;;;;;;;;;5114788;28;20098;-76
2021/05/09 05:46:36;;;;;;;6.13;3.90;;;;;;;;;;5116805;28;20107;-76
2021/05/09 05:49:02;;;;;;;6.00;4.00;;;;;;;;;;5112722;28;20602;-76
2021/05/09 05:51:28;;;;;;;7.20;3.85;;;;;;;;;;5108363;28;20387;-76
2021/05/09 05:53:54;;;;;;;5.47;3.85;;;;;;;;;;5110314;28;20063;-76
2021/05/09 05:56:20;;;;;;;6.97;3.47;;;;;;;;;;5114353;28;20053;-76
2021/05/09 05:58:45;;;;;;;5.93;3.60;;;;;;;;;;5108592;28;20016;-77
2021/05/09 06:01:11;;;;;;;5.82;4.15;;;;;;;;;;5109973;28;20067;-76
2021/05/09 06:03:37;;;;;;;6.97;4.43;;;;;;;;;;5113543;28;20020;-76
2021/05/09 06:06:02;;;;;;;7.75;4.93;;;;;;;;;;5114070;28;20020;-76
2021/05/09 06:08:28;;;;;;;6.13;3.90;;;;;;;;;;5113344;28;20024;-76
2021/05/09 06:10:54;;;;;;;5.72;3.92;;;;;;;;;;5110971;28;20024;-76
2021/05/09 06:13:23;;;;;;;6.03;3.60;;;;;;;;;;5111631;28;20027;-76
2021/05/09 06:15:49;;;;;;;8.25;4.43;;;;;;;;;;5116367;28;20027;-77
2021/05/09 06:18:15;;;;;;;7.55;4.88;;;;;;;;;;5113563;28;20012;-76
2021/05/09 06:20:40;;;;;;;8.55;4.82;;;;;;;;;;5107871;28;20016;-76
2021/05/09 06:23:06;;;;;;;6.20;3.90;;;;;;;;;;5111387;28;20016;-76
2021/05/09 06:25:33;;;;;;;6.68;4.35;;;;;;;;;;5109162;28;20032;-76
2021/05/09 06:27:58;;;;;;;7.80;3.75;;;;;;;;;;5112845;28;20098;-77
2021/05/09 06:30:24;;;;;;;5.78;3.55;;;;;;;;;;5114215;28;20036;-77
2021/05/09 06:35:09;;;;;;;7.22;3.80;;;;;;;;;;5073696;28;20362;-77
2021/05/09 06:37:35;;;;;;;7.25;3.83;;;;;;;;;;5068989;28;20033;-78
2021/05/09 06:40:01;;;;;;;6.80;4.00;;;;;;;;;;5055602;28;20105;-78
2021/05/09 06:42:27;;;;;;;5.38;3.40;;;;;;;;;;5061975;28;20041;-78
2021/05/09 06:44:58;;;;;;;5.65;3.45;;;;;;;;;;5061434;28;20021;-78
2021/05/09 06:47:24;;;;;;;4.57;2.97;;;;;;;;;;5056599;28;20033;-78
2021/05/09 06:49:50;;;;;;;5.45;3.17;;;;;;;;;;5059103;28;20043;-78
2021/05/09 06:52:15;;;;;;;4.55;2.72;;;;;;;;;;5058314;28;20037;-78
2021/05/09 06:54:41;;;;;;;7.43;3.53;;;;;;;;;;5066905;28;20055;-78
2021/05/09 06:57:07;;;;;;;5.28;2.85;;;;;;;;;;5063688;28;20032;-78
2021/05/09 06:59:33;;;;;;;6.25;3.58;;;;;;;;;;5069672;28;20447;-78
2021/05/09 07:01:58;;;;;;;4.78;3.05;;;;;;;;;;5067542;28;20105;-78
2021/05/09 07:04:24;;;;;;;5.70;3.25;;;;;;;;;;5070903;28;20047;-78
2021/05/09 07:06:50;;;;;;;4.32;2.83;;;;;;;;;;5064122;28;20035;-79
2021/05/09 07:09:15;;;;;;;6.82;2.85;;;;;;;;;;5054437;28;20029;-78
2021/05/09 07:11:41;;;;;;;4.38;2.70;;;;;;;;;;5056332;28;20029;-78
2021/05/09 07:14:07;;;;;;;4.88;3.05;;;;;;;;;;5052817;28;20032;-78
2021/05/09 07:16:33;;;;;;;5.10;3.13;;;;;;;;;;5058260;28;20021;-78
2021/05/09 07:19:01;;;;;;;4.28;3.05;;;;;;;;;;5051257;28;20029;-78
2021/05/09 07:21:29;;;;;;;4.43;3.10;;;;;;;;;;5063612;28;20032;-78
2021/05/09 07:23:55;;;;;;;3.83;2.40;;;;;;;;;;5064730;28;20025;-78
2021/05/09 07:26:21;;;;;;;4.45;2.85;;;;;;;;;;5062721;28;20025;-78
2021/05/09 07:28:47;;;;;;;6.25;3.08;;;;;;;;;;5064538;28;20017;-78
2021/05/09 07:31:13;;;;;;;8.23;2.88;;;;;;;;;;5065562;28;20514;-78
2021/05/09 07:33:39;;;;;;;4.65;2.88;;;;;;;;;;5067218;28;20029;-78
2021/05/09 07:36:05;;;;;;;7.10;3.42;;;;;;;;;;5066149;28;20028;-78
2021/05/09 07:38:31;;;;;;;4.43;2.50;;;;;;;;;;5057872;28;20017;-77
2021/05/09 07:40:57;;;;;;;5.13;3.00;;;;;;;;;;5055992;28;20032;-78
2021/05/09 07:43:22;;;;;;;5.07;2.70;;;;;;;;;;5050339;28;20413;-78
2021/05/09 07:45:48;;;;;;;4.05;2.78;;;;;;;;;;5054768;28;20077;-78
2021/05/09 07:48:14;;;;;;;4.80;3.17;;;;;;;;;;5040161;28;20017;-78
2021/05/09 07:50:40;;;;;;;7.22;2.72;;;;;;;;;;5043691;28;20024;-78
2021/05/09 07:53:06;;;;;;;4.45;2.78;;;;;;;;;;5040210;28;20025;-78
2021/05/09 07:55:32;;;;;;;6.00;2.50;;;;;;;;;;5041795;28;20028;-78
2021/05/09 07:57:58;;;;;;;4.40;2.58;;;;;;;;;;5040157;28;20010;-78
2021/05/09 08:00:24;;;;;;;4.47;2.75;;;;;;;;;;5039665;28;20071;-78
2021/05/09 08:02:50;;;;;;;5.25;2.88;;;;;;;;;;5040297;28;20025;-78
2021/05/09 08:05:17;;;;;;;4.13;2.50;;;;;;;;;;5049459;28;20048;-78
2021/05/09 08:07:49;;;;;;;4.30;2.17;;;;;;;;;;5047601;28;20021;-78
2021/05/09 08:10:15;;;;;;;5.78;2.38;;;;;;;;;;5046861;28;20033;-78
2021/05/09 08:12:40;;;;;;;4.82;1.95;;;;;;;;;;5045885;28;20035;-79
2021/05/09 08:15:06;;;;;;;3.78;1.85;;;;;;;;;;5045598;28;20290;-78
2021/05/09 08:17:32;;;;;;;3.03;1.60;;;;;;;;;;5048699;28;20034;-78
2021/05/09 08:19:58;;;;;;;2.75;1.42;;;;;;;;;;5049519;28;20044;-78
2021/05/09 08:22:23;;;;;;;3.53;1.60;;;;;;;;;;5043953;28;20105;-79
2021/05/09 08:24:49;;;;;;;6.10;1.60;;;;;;;;;;5047882;28;20096;-80
2021/05/09 08:27:15;;;;;;;5.10;2.00;;;;;;;;;;5046608;28;20048;-78
2021/05/09 08:29:41;;;;;;;4.38;2.22;;;;;;;;;;5050165;28;20406;-78
2021/05/09 08:32:06;;;;;;;6.13;2.90;;;;;;;;;;5044357;28;20085;-78
2021/05/09 08:34:32;;;;;;;3.90;2.03;;;;;;;;;;5037135;28;20097;-78
2021/05/09 08:36:58;;;;;;;4.82;2.63;;;;;;;;;;5038145;28;20040;-78
2021/05/09 08:39:23;;;;;;;3.65;1.70;;;;;;;;;;5048704;28;20093;-78
2021/05/09 08:41:50;;;;;;;2.78;1.30;;;;;;;;;;5036667;28;20120;-78
2021/05/09 08:44:16;;;;;;;4.50;1.55;;;;;;;;;;5044595;28;20355;-79
2021/05/09 08:46:42;;;;;;;4.78;1.92;;;;;;;;;;5041853;28;20100;-78
2021/05/09 08:49:09;;;;;;;3.13;1.48;;;;;;;;;;5044309;28;20032;-78
2021/05/09 08:51:35;;;;;;;4.70;2.10;;;;;;;;;;5048332;28;20021;-78
2021/05/09 08:54:00;;;;;;;3.97;2.03;;;;;;;;;;5042949;28;20028;-78
2021/05/09 08:56:26;;;;;;;4.15;2.00;;;;;;;;;;5039230;28;20053;-78
2021/05/09 08:58:53;;;;;;;2.72;1.50;;;;;;;;;;5049815;28;20024;-78
2021/05/09 09:01:18;;;;;;;3.13;1.58;;;;;;;;;;5041982;28;20025;-78
2021/05/09 09:03:44;;;;;;;7.95;1.40;;;;;;;;;;5042069;28;20024;-78
2021/05/09 09:06:15;;;;;;;4.00;1.45;;;;;;;;;;5048288;28;20033;-78
2021/05/09 09:08:53;;;;;;;2.85;1.45;;;;;;;;;;5049060;28;20081;-77
2021/05/09 09:11:28;;;;;;;4.97;2.38;;;;;;;;;;5044344;28;20081;-77
2021/05/09 09:14:07;;;;;;;5.00;1.83;;;;;;;;;;5029704;28;20060;-78
2021/05/09 09:16:33;;;;;;;2.85;1.38;;;;;;;;;;5051332;28;20029;-78
2021/05/09 09:19:05;;;;;;;2.45;1.33;;;;;;;;;;5045868;28;20055;-78
2021/05/09 09:21:31;;;;;;;6.32;1.45;;;;;;;;;;5052133;28;20027;-78
2021/05/09 09:24:00;;;;;;;3.47;1.27;;;;;;;;;;5047729;28;20025;-78
2021/05/09 09:26:32;;;;;;;3.60;1.35;;;;;;;;;;5056811;28;20025;-78
2021/05/09 09:28:58;;;;;;;3.88;1.45;;;;;;;;;;5052269;28;20025;-81
2021/05/09 09:31:44;;;;;;;4.80;1.30;;;;;;;;;;5061029;28;20016;-82
2021/05/09 09:34:10;;;;;;;3.15;1.40;;;;;;;;;;5045907;28;20056;-82
2021/05/09 09:36:36;;;;;;;5.65;1.42;;;;;;;;;;5049713;28;20029;-82
2021/05/09 09:39:02;;;;;;;2.67;1.42;;;;;;;;;;5048529;28;20088;-78
2021/05/09 09:41:28;;;;;;;3.08;1.20;;;;;;;;;;5041082;28;20017;-78
2021/05/09 09:44:15;;;;;;;4.78;1.23;;;;;;;;;;5054292;28;20052;-78
2021/05/09 09:46:42;;;;;;;3.92;1.55;;;;;;;;;;5047917;28;20035;-78
2021/05/09 09:49:22;;;;;;;3.58;1.20;;;;;;;;;;5043311;28;20053;-82
2021/05/09 09:51:57;;;;;;;4.25;1.52;;;;;;;;;;5044838;28;20040;-85
2021/05/09 09:54:49;;;;;;;3.20;1.50;;;;;;;;;;5043744;28;20025;-83
2021/05/09 09:57:22;;;;;;;2.55;1.50;;;;;;;;;;5045464;28;20040;-84
2021/05/09 10:00:08;;;;;;;5.03;1.45;;;;;;;;;;5049660;28;20025;-82
2021/05/09 10:02:34;;;;;;;4.07;1.67;;;;;;;;;;5047504;28;20041;-83
2021/05/09 10:05:00;;;;;;;5.68;2.58;;;;;;;;;;5057995;28;20029;-82
2021/05/09 10:07:27;;;;;;;5.97;2.67;;;;;;;;;;5051420;28;20037;-81
2021/05/09 10:09:55;;;;;;;3.47;1.70;;;;;;;;;;5046223;28;20467;-82
2021/05/09 10:12:20;;;;;;;3.10;1.20;;;;;;;;;;5054493;28;20485;-81
2021/05/09 10:14:47;;;;;;;3.00;1.20;;;;;;;;;;5049152;28;20013;-81
2021/05/09 10:17:13;;;;;;;4.05;1.17;;;;;;;;;;5046993;28;20037;-81
2021/05/09 10:19:38;;;;;;;3.55;1.17;;;;;;;;;;5050735;28;20496;-82
2021/05/09 10:22:24;;;;;;;2.90;1.20;;;;;;;;;;5049886;28;20055;-81
2021/05/09 10:24:49;;;;;;;3.03;1.23;;;;;;;;;;5051811;28;20013;-81
2021/05/09 10:27:15;;;;;;;4.40;1.48;;;;;;;;;;5050689;28;20049;-81
2021/05/09 10:29:41;;;;;;;2.85;1.20;;;;;;;;;;5047522;28;20037;-82
2021/05/09 10:32:33;;;;;;;4.13;2.40;;;;;;;;;;5043280;28;20025;-81
2021/05/09 10:35:00;;;;;;;5.40;2.08;;;;;;;;;;5038283;28;20041;-81
2021/05/09 10:37:37;;;;;;;3.40;1.33;;;;;;;;;;5038389;28;20036;-81
2021/05/09 10:40:22;;;;;;;2.63;1.50;;;;;;;;;;5047621;28;20089;-81
2021/05/09 10:42:48;;;;;;;2.95;1.20;;;;;;;;;;5035295;28;20034;-81
2021/05/09 10:45:30;;;;;;;2.60;1.27;;;;;;;;;;5051508;28;20025;-81
2021/05/09 10:48:30;;;;;;;3.60;1.63;;;;;;;;;;5049140;28;20021;-81
2021/05/09 10:50:57;;;;;;;4.32;1.42;;;;;;;;;;5044380;28;20029;-81
2021/05/09 10:53:31;;;;;;;2.97;1.02;;;;;;;;;;5044031;28;20018;-81
2021/05/09 10:55:57;;;;;;;3.05;1.50;;;;;;;;;;5043213;28;20036;-81
2021/05/09 10:58:42;;;;;;;3.53;1.17;;;;;;;;;;5051634;28;20053;-81
2021/05/09 11:01:10;;;;;;;7.13;1.50;;;;;;;;;;5047112;28;20050;-81
2021/05/09 11:03:36;;;;;;;2.03;1.00;;;;;;;;;;5048165;28;20021;-81
2021/05/09 11:06:09;;;;;;;4.72;1.60;;;;;;;;;;5052531;28;20055;-82
2021/05/09 11:08:58;;;;;;;3.08;1.42;;;;;;;;;;5050496;28;20021;-82
2021/05/09 11:11:31;;;;;;;2.47;1.38;;;;;;;;;;5043270;28;20044;-82
2021/05/09 11:13:59;;;;;;;4.57;1.90;;;;;;;;;;5047283;28;20019;-82
2021/05/09 11:16:25;;;;;;;3.65;1.33;;;;;;;;;;5041262;28;20068;-82
2021/05/09 11:19:01;;;;;;;4.10;1.23;;;;;;;;;;5042614;28;20379;-82
2021/05/09 11:21:33;;;;;;;2.92;1.50;;;;;;;;;;5049997;28;20022;-82
2021/05/09 11:24:00;;;;;;;2.92;1.10;;;;;;;;;;5055905;28;20024;-82
2021/05/09 11:26:27;;;;;;;4.88;1.20;;;;;;;;;;5051755;28;20017;-82
2021/05/09 11:29:12;;;;;;;4.45;1.25;;;;;;;;;;5054322;28;20013;-82
2021/05/09 11:31:38;;;;;;;4.38;1.45;;;;;;;;;;5052120;28;20021;-82
2021/05/09 11:34:04;;;;;;;4.28;1.52;;;;;;;;;;5047384;28;20090;-82
2021/05/09 11:36:34;;;;;;;2.20;1.10;;;;;;;;;;5053491;28;20307;-82
2021/05/09 11:39:26;;;;;;;12.80;5.37;;;;;;;;;;5045185;28;20031;-82
2021/05/09 11:41:56;;;;;;;7.20;2.85;;;;;;;;;;5048291;28;20032;-82
2021/05/09 11:44:23;;;;;;;6.05;3.08;;;;;;;;;;5047693;28;20024;-82
2021/05/09 11:46:49;;;;;;;4.03;1.30;;;;;;;;;;5042413;28;20025;-82
2021/05/09 11:49:19;;;;;;;3.10;1.50;;;;;;;;;;5051471;28;20021;-82
2021/05/09 11:51:52;;;;;;;14.25;2.28;;;;;;;;;;5045006;28;20017;-82
2021/05/09 11:54:18;;;;;;;7.35;1.77;;;;;;;;;;5055138;28;20025;-82
2021/05/09 11:56:50;;;;;;;3.30;1.67;;;;;;;;;;5053081;28;20040;-82
2021/05/09 11:59:32;;;;;;;4.22;1.50;;;;;;;;;;5048540;28;20099;-82
2021/05/09 12:01:59;;;;;;;3.17;1.20;;;;;;;;;;5047626;28;20128;-78
2021/05/09 12:04:29;;;;;;;3.03;1.38;;;;;;;;;;5039025;28;20024;-79
2021/05/09 12:06:59;;;;;;;3.13;1.10;;;;;;;;;;5041402;28;20033;-79
2021/05/09 12:09:25;;;;;;;3.37;1.13;;;;;;;;;;5045160;28;20031;-78
2021/05/09 12:11:51;;;;;;;3.42;1.65;;;;;;;;;;5044666;28;20279;-79
2021/05/09 12:14:17;;;;;;;5.35;2.47;;;;;;;;;;5040422;28;20017;-79
2021/05/09 12:16:47;;;;;;;4.53;2.25;;;;;;;;;;5036090;28;20037;-79
2021/05/09 12:19:13;;;;;;;4.70;1.42;;;;;;;;;;5047472;28;20016;-78
2021/05/09 12:21:39;;;;;;;4.60;2.13;;;;;;;;;;5043512;28;20083;-78
2021/05/09 12:24:06;;;;;;;4.25;2.30;;;;;;;;;;5035964;28;20388;-79
2021/05/09 12:26:32;;;;;;;5.45;1.70;;;;;;;;;;5049523;28;20021;-79
2021/05/09 12:29:17;;;;;;;3.20;1.88;;;;;;;;;;5041418;28;20099;-79
2021/05/09 12:31:42;;;;;;;2.83;1.65;;;;;;;;;;5050536;28;20072;-79
2021/05/09 12:34:10;;;;;;;3.40;1.60;;;;;;;;;;5046176;28;20021;-79
2021/05/09 12:36:35;;;;;;;2.92;1.30;;;;;;;;;;5054639;28;20056;-80
2021/05/09 12:39:03;;;;;;;5.55;1.50;;;;;;;;;;5046449;28;20612;-79
2021/05/09 12:41:30;;;;;;;3.63;1.38;;;;;;;;;;5041845;28;20071;-79
2021/05/09 12:43:56;;;;;;;2.20;1.15;;;;;;;;;;5051201;28;20017;-79
2021/05/09 12:46:35;;;;;;;4.22;1.42;;;;;;;;;;5049617;28;20017;-79
2021/05/09 12:49:07;;;;;;;2.65;1.17;;;;;;;;;;5052135;28;20021;-79
2021/05/09 12:51:33;;;;;;;6.43;1.73;;;;;;;;;;5036503;28;20020;-79
2021/05/09 12:53:58;;;;;;;3.30;1.40;;;;;;;;;;5038970;28;20035;-80
2021/05/09 12:56:31;;;;;;;2.88;1.38;;;;;;;;;;5041115;28;20489;-79
2021/05/09 12:58:57;;;;;;;3.08;1.33;;;;;;;;;;5044093;28;20009;-79
2021/05/09 13:01:22;;;;;;;3.65;1.30;;;;;;;;;;5036853;28;20060;-79
2021/05/09 13:03:48;;;;;;;3.38;1.27;;;;;;;;;;5038493;28;20013;-79
2021/05/09 13:06:14;;;;;;;3.72;1.40;;;;;;;;;;5044175;28;20107;-79
2021/05/09 13:08:39;;;;;;;4.32;1.17;;;;;;;;;;5043129;28;20116;-80
2021/05/09 13:11:05;;;;;;;3.22;1.05;;;;;;;;;;5039696;28;20108;-79
2021/05/09 13:13:30;;;;;;;2.95;1.45;;;;;;;;;;5038926;28;20101;-79
2021/05/09 13:15:56;;;;;;;4.55;1.38;;;;;;;;;;5049821;28;20084;-80
2021/05/09 13:18:22;;;;;;;4.57;1.52;;;;;;;;;;5048575;28;20031;-79
2021/05/09 13:20:47;;;;;;;3.25;1.63;;;;;;;;;;5050010;28;20035;-80
2021/05/09 13:23:14;;;;;;;3.63;1.35;;;;;;;;;;5035883;28;20029;-81
2021/05/09 13:25:40;;;;;;;5.55;1.73;;;;;;;;;;5038683;28;20105;-83
2021/05/09 13:28:06;;;;;;;4.55;1.45;;;;;;;;;;5040949;28;20326;-82
2021/05/09 13:30:32;;;;;;;4.50;1.60;;;;;;;;;;5039298;28;20108;-80
2021/05/09 13:33:01;;;;;;;2.75;1.30;;;;;;;;;;5036308;28;20478;-80
2021/05/09 13:35:27;;;;;;;2.55;1.20;;;;;;;;;;5042075;28;20020;-78
2021/05/09 13:37:52;;;;;;;3.53;1.40;;;;;;;;;;5037551;28;20025;-79
2021/05/09 13:40:18;;;;;;;2.55;1.30;;;;;;;;;;5032047;28;20033;-76
2021/05/09 13:42:44;;;;;;;2.45;1.38;;;;;;;;;;5038218;28;20040;-80
2021/05/09 13:45:11;;;;;;;5.55;1.42;;;;;;;;;;5033474;28;20021;-78
2021/05/09 13:47:36;;;;;;;4.20;1.00;;;;;;;;;;5034027;28;20128;-79
2021/05/09 13:50:02;;;;;;;4.13;1.50;;;;;;;;;;5033984;28;20025;-79
2021/05/09 13:52:28;;;;;;;3.70;1.40;;;;;;;;;;5033820;28;20018;-79
2021/05/09 13:54:54;;;;;;;3.17;1.40;;;;;;;;;;5037633;28;20029;-80
2021/05/09 13:57:20;;;;;;;2.58;1.17;;;;;;;;;;5046623;28;20112;-79
2021/05/09 13:59:45;;;;;;;2.78;1.23;;;;;;;;;;5043034;28;20021;-78
2021/05/09 14:02:11;;;;;;;2.67;1.20;;;;;;;;;;5044843;28;20600;-79
2021/05/09 14:04:37;;;;;;;3.53;1.20;;;;;;;;;;5036772;28;20029;-79
2021/05/09 14:07:02;;;;;;;4.22;1.60;;;;;;;;;;5042146;28;20116;-80
2021/05/09 14:09:28;;;;;;;3.85;1.23;;;;;;;;;;5037573;28;20408;-78
2021/05/09 14:12:05;;;;;;;3.92;1.25;;;;;;;;;;5039631;28;20056;-78
2021/05/09 14:14:33;;;;;;;13.90;1.73;;;;;;;;;;5030063;28;20461;-78
2021/05/09 14:16:59;;;;;;;2.55;1.48;;;;;;;;;;5039356;28;20036;-78
2021/05/09 14:19:25;;;;;;;2.33;1.00;;;;;;;;;;5038751;28;20026;-78
2021/05/09 14:21:50;;;;;;;4.93;1.35;;;;;;;;;;5037368;28;20025;-78
2021/05/09 14:24:16;;;;;;;3.65;1.23;;;;;;;;;;5039968;28;20029;-78
2021/05/09 14:26:42;;;;;;;3.22;1.20;;;;;;;;;;5038661;28;20020;-78
2021/05/09 14:29:07;;;;;;;4.55;1.30;;;;;;;;;;5040873;28;20068;-79
2021/05/09 14:31:33;;;;;;;3.22;1.02;;;;;;;;;;5037201;28;20224;-79
2021/05/09 14:33:59;;;;;;;3.13;1.08;;;;;;;;;;5036155;28;20404;-78
2021/05/09 14:36:25;;;;;;;2.33;1.05;;;;;;;;;;5034192;28;20120;-78
2021/05/09 14:38:53;;;;;;;2.40;1.17;;;;;;;;;;5035906;28;20508;-78
2021/05/09 14:41:18;;;;;;;2.60;1.27;;;;;;;;;;5038628;28;20025;-78
2021/05/09 14:43:44;;;;;;;3.35;1.30;;;;;;;;;;5041540;28;20489;-78
2021/05/09 14:46:12;;;;;;;3.30;1.63;;;;;;;;;;5041651;28;20098;-78
2021/05/09 14:48:37;;;;;;;5.72;1.25;;;;;;;;;;5037206;28;20393;-77
2021/05/09 14:51:03;;;;;;;3.60;1.45;;;;;;;;;;5038808;28;20025;-77
2021/05/09 14:53:29;;;;;;;3.17;1.30;;;;;;;;;;5040686;28;20045;-77
2021/05/09 14:55:55;;;;;;;2.75;1.15;;;;;;;;;;5034466;28;20036;-78
2021/05/09 14:58:20;;;;;;;3.40;1.15;;;;;;;;;;5048889;28;20102;-78
2021/05/09 15:00:49;;;;;;;1.73;0.90;;;;;;;;;;5044455;28;20035;-78
2021/05/09 15:03:15;;;;;;;2.30;1.20;;;;;;;;;;5035733;28;20067;-78
2021/05/09 15:05:40;;;;;;;2.88;1.23;;;;;;;;;;5036369;28;20421;-78
2021/05/09 15:08:06;;;;;;;2.92;1.17;;;;;;;;;;5044850;28;20033;-77
2021/05/09 15:10:32;;;;;;;2.30;1.20;;;;;;;;;;5041942;28;20144;-77
2021/05/09 15:12:57;;;;;;;2.03;1.00;;;;;;;;;;5046346;28;20052;-78
2021/05/09 15:15:23;;;;;;;3.40;1.20;;;;;;;;;;5049466;28;20039;-76
2021/05/09 15:17:49;;;;;;;4.50;1.25;;;;;;;;;;5052718;28;20080;-78
2021/05/09 15:20:15;;;;;;;3.90;1.20;;;;;;;;;;5044958;28;21610;-80
2021/05/09 15:22:40;;;;;;;2.60;1.20;;;;;;;;;;5048126;28;20075;-79
2021/05/09 15:25:07;;;;;;;2.20;1.13;;;;;;;;;;5051537;28;20021;-79
2021/05/09 15:27:32;;;;;;;3.20;1.30;;;;;;;;;;5049494;28;20080;-80
2021/05/09 15:29:58;;;;;;;2.80;1.20;;;;;;;;;;5047734;28;20474;-79
2021/05/09 15:32:24;;;;;;;4.05;1.38;;;;;;;;;;5049637;28;20052;-79
2021/05/09 15:34:50;;;;;;;3.63;1.65;;;;;;;;;;5050092;28;20061;-78
2021/05/09 15:37:15;;;;;;;3.38;1.20;;;;;;;;;;5051328;28;20033;-81
2021/05/09 15:39:41;;;;;;;5.93;1.58;;;;;;;;;;5053502;28;20017;-79
2021/05/09 15:42:08;;;;;;;3.03;1.30;;;;;;;;;;5054255;28;20123;-79
2021/05/09 15:44:38;;;;;;;2.42;0.95;;;;;;;;;;5047075;28;20055;-78
2021/05/09 15:47:04;;;;;;;2.90;1.50;;;;;;;;;;5051047;28;20718;-78
2021/05/09 15:49:30;;;;;;;4.13;1.42;;;;;;;;;;5043526;28;20028;-78
2021/05/09 15:51:56;;;;;;;2.67;1.42;;;;;;;;;;5047537;28;20025;-78
2021/05/09 15:54:22;;;;;;;4.18;1.30;;;;;;;;;;5049367;28;20787;-78
2021/05/09 15:56:49;;;;;;;3.45;1.25;;;;;;;;;;5054767;28;20059;-78
2021/05/09 15:59:15;;;;;;;2.78;1.30;;;;;;;;;;5048452;28;20037;-78
2021/05/09 16:01:40;;;;;;;2.33;1.13;;;;;;;;;;5053632;28;20025;-77
2021/05/09 16:04:06;;;;;;;2.60;1.10;;;;;;;;;;5058660;28;20052;-77
2021/05/09 16:06:32;;;;;;;4.15;1.27;;;;;;;;;;5052888;28;20294;-79
2021/05/09 16:08:58;;;;;;;5.00;1.40;;;;;;;;;;5059033;28;20056;-77
2021/05/09 16:11:24;;;;;;;3.83;1.27;;;;;;;;;;5045121;28;20421;-79
2021/05/09 16:13:52;;;;;;;3.70;1.70;;;;;;;;;;5040701;28;20108;-78
2021/05/09 16:16:18;;;;;;;3.00;1.77;;;;;;;;;;5044564;28;20067;-78
2021/05/09 16:18:44;;;;;;;4.05;2.50;;;;;;;;;;5046606;28;20385;-78
2021/05/09 16:21:09;;;;;;;5.22;2.13;;;;;;;;;;5043760;28;20074;-78
2021/05/09 16:23:35;;;;;;;2.88;1.55;;;;;;;;;;5040750;28;20064;-78
2021/05/09 16:26:01;;;;;;;5.20;1.63;;;;;;;;;;5039678;28;20027;-78
2021/05/09 16:28:26;;;;;;;4.78;1.88;;;;;;;;;;5034286;28;20045;-81
2021/05/09 16:30:52;;;;;;;4.43;1.73;;;;;;;;;;5034658;28;20021;-78
2021/05/09 16:33:18;;;;;;;6.13;2.08;;;;;;;;;;5037160;28;20017;-78
2021/05/09 16:35:44;;;;;;;4.18;1.77;;;;;;;;;;5041174;28;20049;-78
2021/05/09 16:38:09;;;;;;;3.33;1.70;;;;;;;;;;5041064;28;20504;-78
2021/05/09 16:40:36;;;;;;;2.80;1.15;;;;;;;;;;5040926;28;20405;-78
2021/05/09 16:43:01;;;;;;;3.40;1.80;;;;;;;;;;5040157;28;20485;-79
2021/05/09 16:45:27;;;;;;;6.07;2.10;;;;;;;;;;5039125;28;20112;-78
2021/05/09 16:47:53;;;;;;;5.95;2.08;;;;;;;;;;5041473;28;20017;-78
2021/05/09 16:50:18;;;;;;;2.83;1.50;;;;;;;;;;5038688;28;20018;-79
2021/05/09 16:52:52;;;;;;;2.72;1.08;;;;;;;;;;5043790;28;20056;-78
2021/05/09 16:55:17;;;;;;;3.25;1.60;;;;;;;;;;5041730;28;20033;-78
2021/05/09 16:57:43;;;;;;;5.53;2.95;;;;;;;;;;5040955;28;20112;-78
2021/05/09 17:00:09;;;;;;;3.30;1.85;;;;;;;;;;5049049;28;20146;-78
2021/05/09 17:02:35;;;;;;;3.63;1.92;;;;;;;;;;5045396;28;20036;-79
2021/05/09 17:05:01;;;;;;;4.25;1.60;;;;;;;;;;5040814;28;20109;-78
2021/05/09 17:07:26;;;;;;;6.60;1.60;;;;;;;;;;5064522;22;20128;-86
2021/05/09 17:09:52;;;;;;;4.65;1.95;;;;;;;;;;5033257;28;20586;-86
2021/05/09 17:12:28;;;;;;;3.42;1.80;;;;;;;;;;5034268;28;20021;-87
2021/05/09 17:14:57;;;;;;;8.82;2.67;;;;;;;;;;5034493;28;20031;-86
2021/05/09 17:17:26;;;;;;;3.05;1.52;;;;;;;;;;5043614;28;20029;-86
2021/05/09 17:19:52;;;;;;;3.10;1.30;;;;;;;;;;5041100;28;20024;-85
2021/05/09 17:22:20;;;;;;;2.72;1.20;;;;;;;;;;5041008;28;20057;-86
2021/05/09 17:24:45;;;;;;;10.43;1.88;;;;;;;;;;5047394;28;20033;-85
2021/05/09 17:27:11;;;;;;;4.45;1.50;;;;;;;;;;5053111;28;20037;-86
2021/05/09 17:29:37;;;;;;;7.63;1.60;;;;;;;;;;5049820;28;20497;-85
2021/05/09 17:32:03;;;;;;;4.47;1.70;;;;;;;;;;5053578;28;20264;-85
2021/05/09 17:34:29;;;;;;;5.95;1.30;;;;;;;;;;5040822;28;20075;-85
2021/05/09 17:36:54;;;;;;;5.93;1.98;;;;;;;;;;5036399;28;20025;-86
2021/05/09 17:39:20;;;;;;;2.90;1.15;;;;;;;;;;5040241;28;20060;-85
2021/05/09 17:41:48;;;;;;;5.00;1.52;;;;;;;;;;5036904;28;20025;-85
2021/05/09 17:44:14;;;;;;;2.83;1.20;;;;;;;;;;5036512;28;20044;-85
2021/05/09 17:46:40;;;;;;;6.43;1.80;;;;;;;;;;5043556;28;20036;-85
2021/05/09 17:49:10;;;;;;;4.18;1.48;;;;;;;;;;5040497;28;20401;-85
2021/05/09 17:51:36;;;;;;;6.45;1.95;;;;;;;;;;5043551;28;20084;-85
2021/05/09 17:54:02;;;;;;;4.20;1.30;;;;;;;;;;5048916;28;20028;-85
2021/05/09 17:56:27;;;;;;;8.10;1.80;;;;;;;;;;5053602;28;20022;-85
2021/05/09 17:58:54;;;;;;;5.35;1.85;;;;;;;;;;5054415;28;20080;-85
2021/05/09 18:01:19;;;;;;;5.50;1.30;;;;;;;;;;5047111;28;20029;-85
2021/05/09 18:03:45;;;;;;;4.53;2.03;;;;;;;;;;5053269;28;20119;-85
2021/05/09 18:06:11;;;;;;;6.90;1.50;;;;;;;;;;5050290;28;20052;-85
2021/05/09 18:08:36;;;;;;;4.40;1.67;;;;;;;;;;5044524;28;20049;-85
2021/05/09 18:11:02;;;;;;;3.92;1.33;;;;;;;;;;5043851;28;20585;-85
2021/05/09 18:13:28;;;;;;;6.30;1.63;;;;;;;;;;5045722;28;20032;-85
2021/05/09 18:23:33;;;;;;;8.23;1.42;;;;;;;;;;5045682;28;20103;-85
2021/05/09 18:26:00;;;;;;;5.32;1.30;;;;;;;;;;5039639;28;20022;-85
2021/05/09 18:28:25;;;;;;;2.70;1.20;;;;;;;;;;5036610;28;20036;-86
2021/05/09 18:30:51;;;;;;;4.72;1.70;;;;;;;;;;5043988;28;20025;-86
2021/05/09 18:33:17;;;;;;;3.47;1.38;;;;;;;;;;5041792;28;20030;-86
2021/05/09 18:35:45;;;;;;;4.03;1.20;;;;;;;;;;5040871;28;20327;-86
2021/05/09 18:38:11;;;;;;;4.97;1.15;;;;;;;;;;5038591;28;20143;-86
2021/05/09 18:40:37;;;;;;;3.30;1.30;;;;;;;;;;5040713;28;20041;-86
2021/05/09 18:43:03;;;;;;;8.40;1.50;;;;;;;;;;5040118;28;20069;-85
2021/05/09 18:45:29;;;;;;;5.82;1.25;;;;;;;;;;5047324;28;20032;-85
2021/05/09 18:47:55;;;;;;;3.92;1.48;;;;;;;;;;5046325;28;20056;-85
2021/05/09 18:50:21;;;;;;;4.70;1.80;;;;;;;;;;5040191;28;20018;-85
2021/05/09 18:52:46;;;;;;;3.40;1.38;;;;;;;;;;5040734;28;20108;-85
2021/05/09 18:55:12;;;;;;;4.13;1.48;;;;;;;;;;5044259;28;20060;-85
2021/05/09 18:57:38;;;;;;;4.50;1.65;;;;;;;;;;5041774;28;20022;-85
2021/05/09 19:00:05;;;;;;;6.70;1.60;;;;;;;;;;5034587;28;20026;-85
2021/05/09 19:02:30;;;;;;;7.25;1.73;;;;;;;;;;5044760;28;20036;-85
2021/05/09 19:04:56;;;;;;;4.85;1.35;;;;;;;;;;5038948;28;20033;-85
2021/05/09 19:07:23;;;;;;;2.80;1.35;;;;;;;;;;5033864;28;20029;-85
2021/05/09 19:09:49;;;;;;;4.70;1.33;;;;;;;;;;5037160;28;20036;-86
2021/05/09 19:12:15;;;;;;;3.92;1.15;;;;;;;;;;5034776;28;20104;-85
2021/05/09 19:14:41;;;;;;;3.72;1.20;;;;;;;;;;5040106;28;20027;-86
2021/05/09 19:17:07;;;;;;;6.53;1.63;;;;;;;;;;5040448;28;20029;-85
2021/05/09 19:19:32;;;;;;;3.03;1.45;;;;;;;;;;5047458;28;20025;-86
2021/05/09 19:21:58;;;;;;;3.30;1.77;;;;;;;;;;5044883;28;20057;-86
2021/05/09 19:24:24;;;;;;;3.80;1.58;;;;;;;;;;5034203;28;20110;-84
2021/05/09 19:26:50;;;;;;;7.72;1.65;;;;;;;;;;5038383;28;20025;-84
2021/05/09 19:29:15;;;;;;;2.90;1.30;;;;;;;;;;5038457;28;20022;-84
2021/05/09 19:31:41;;;;;;;4.78;1.65;;;;;;;;;;5054085;28;20025;-84
2021/05/09 19:34:07;;;;;;;5.45;1.58;;;;;;;;;;5045592;28;20389;-85
2021/05/09 19:36:32;;;;;;;3.60;1.30;;;;;;;;;;5040719;28;20081;-84
2021/05/09 19:38:58;;;;;;;2.70;1.55;;;;;;;;;;5041706;28;20053;-84
2021/05/09 19:41:24;;;;;;;4.00;1.45;;;;;;;;;;5043703;28;20046;-84
2021/05/09 19:43:50;;;;;;;3.50;1.40;;;;;;;;;;5053017;28;20120;-84
2021/05/09 19:46:16;;;;;;;3.35;1.40;;;;;;;;;;5048645;28;20022;-84
2021/05/09 19:48:42;;;;;;;5.80;1.52;;;;;;;;;;5048703;28;20044;-84
2021/05/09 19:51:08;;;;;;;5.50;1.73;;;;;;;;;;5050802;28;20022;-83